sensor_id;sensor_type;location;lat;lon;timestamp;P1;durP1;ratioP1;P2;durP2;ratioP2
35056;SDS011;21241;51.828;19.574;2023-05-19T00:00:35;12.20;;;11.10;;
35056;SDS011;21241;51.828;19.574;2023-05-19T00:03:19;12.10;;;11.10;;
35056;SDS011;21241;51.828;19.574;2023-05-19T00:05:48;11.40;;;10.50;;
35056;SDS011;21241;51.828;19.574;2023-05-19T00:08:20;13.30;;;12.30;;
35056;SDS011;21241;51.828;19.574;2023-05-19T00:10:49;13.20;;;11.90;;
35056;SDS011;21241;51.828;19.574;2023-05-19T00:13:17;13.20;;;12.10;;
35056;SDS011;21241;51.828;19.574;2023-05-19T00:15:44;13.30;;;12.30;;
35056;SDS011;21241;51.828;19.574;2023-05-19T00:18:13;13.00;;;12.10;;
35056;SDS011;21241;51.828;19.574;2023-05-19T00:20:41;13.60;;;12.40;;
35056;SDS011;21241;51.828;19.574;2023-05-19T00:23:09;13.10;;;12.10;;
35056;SDS011;21241;51.828;19.574;2023-05-19T00:25:37;12.90;;;12.00;;
35056;SDS011;21241;51.828;19.574;2023-05-19T00:28:05;13.20;;;12.10;;
35056;SDS011;21241;51.828;19.574;2023-05-19T00:30:32;13.20;;;12.30;;
35056;SDS011;21241;51.828;19.574;2023-05-19T00:33:00;12.50;;;11.50;;
35056;SDS011;21241;51.828;19.574;2023-05-19T00:35:28;13.70;;;12.60;;
35056;SDS011;21241;51.828;19.574;2023-05-19T00:37:57;14.30;;;13.10;;
35056;SDS011;21241;51.828;19.574;2023-05-19T00:40:25;14.40;;;13.30;;
35056;SDS011;21241;51.828;19.574;2023-05-19T00:42:53;14.90;;;13.80;;
35056;SDS011;21241;51.828;19.574;2023-05-19T00:45:21;14.40;;;13.20;;
35056;SDS011;21241;51.828;19.574;2023-05-19T00:47:49;14.90;;;13.80;;
35056;SDS011;21241;51.828;19.574;2023-05-19T00:50:17;15.40;;;14.10;;
35056;SDS011;21241;51.828;19.574;2023-05-19T00:52:45;14.50;;;13.30;;
35056;SDS011;21241;51.828;19.574;2023-05-19T00:55:13;14.10;;;13.10;;
35056;SDS011;21241;51.828;19.574;2023-05-19T00:57:42;13.90;;;12.90;;
35056;SDS011;21241;51.828;19.574;2023-05-19T01:00:10;13.90;;;12.80;;
35056;SDS011;21241;51.828;19.574;2023-05-19T01:02:38;13.70;;;12.60;;
35056;SDS011;21241;51.828;19.574;2023-05-19T01:05:07;14.40;;;13.20;;
35056;SDS011;21241;51.828;19.574;2023-05-19T01:07:35;14.00;;;12.90;;
35056;SDS011;21241;51.828;19.574;2023-05-19T01:10:04;14.50;;;13.50;;
35056;SDS011;21241;51.828;19.574;2023-05-19T01:12:33;13.80;;;12.80;;
35056;SDS011;21241;51.828;19.574;2023-05-19T01:15:02;14.80;;;13.50;;
35056;SDS011;21241;51.828;19.574;2023-05-19T01:17:37;13.30;;;12.40;;
35056;SDS011;21241;51.828;19.574;2023-05-19T01:20:13;14.40;;;13.10;;
35056;SDS011;21241;51.828;19.574;2023-05-19T01:25:31;15.00;;;13.90;;
35056;SDS011;21241;51.828;19.574;2023-05-19T01:28:13;14.40;;;13.30;;
35056;SDS011;21241;51.828;19.574;2023-05-19T01:30:54;14.00;;;13.10;;
35056;SDS011;21241;51.828;19.574;2023-05-19T01:33:23;15.00;;;13.80;;
35056;SDS011;21241;51.828;19.574;2023-05-19T01:35:53;14.50;;;13.40;;
35056;SDS011;21241;51.828;19.574;2023-05-19T01:38:23;15.00;;;13.90;;
35056;SDS011;21241;51.828;19.574;2023-05-19T01:40:51;14.40;;;13.40;;
35056;SDS011;21241;51.828;19.574;2023-05-19T01:43:22;14.60;;;13.50;;
35056;SDS011;21241;51.828;19.574;2023-05-19T01:45:52;14.70;;;13.70;;
35056;SDS011;21241;51.828;19.574;2023-05-19T01:48:20;14.90;;;13.80;;
35056;SDS011;21241;51.828;19.574;2023-05-19T01:50:49;15.90;;;14.70;;
35056;SDS011;21241;51.828;19.574;2023-05-19T01:53:17;15.70;;;14.60;;
35056;SDS011;21241;51.828;19.574;2023-05-19T01:55:47;16.20;;;15.00;;
35056;SDS011;21241;51.828;19.574;2023-05-19T01:58:30;15.80;;;14.60;;
35056;SDS011;21241;51.828;19.574;2023-05-19T02:04:16;16.20;;;15.10;;
35056;SDS011;21241;51.828;19.574;2023-05-19T02:06:52;15.70;;;14.50;;
35056;SDS011;21241;51.828;19.574;2023-05-19T02:09:50;16.20;;;15.00;;
35056;SDS011;21241;51.828;19.574;2023-05-19T02:12:41;15.30;;;14.20;;
35056;SDS011;21241;51.828;19.574;2023-05-19T02:15:12;15.80;;;14.70;;
35056;SDS011;21241;51.828;19.574;2023-05-19T02:17:43;16.50;;;15.30;;
35056;SDS011;21241;51.828;19.574;2023-05-19T02:20:18;16.30;;;15.00;;
35056;SDS011;21241;51.828;19.574;2023-05-19T02:22:50;16.90;;;15.60;;
35056;SDS011;21241;51.828;19.574;2023-05-19T02:25:18;16.70;;;15.50;;
35056;SDS011;21241;51.828;19.574;2023-05-19T02:27:46;17.00;;;15.80;;
35056;SDS011;21241;51.828;19.574;2023-05-19T02:30:15;16.30;;;15.10;;
35056;SDS011;21241;51.828;19.574;2023-05-19T02:32:43;17.00;;;15.80;;
35056;SDS011;21241;51.828;19.574;2023-05-19T02:35:13;17.30;;;16.10;;
35056;SDS011;21241;51.828;19.574;2023-05-19T02:37:41;17.30;;;16.10;;
35056;SDS011;21241;51.828;19.574;2023-05-19T02:40:09;18.20;;;16.80;;
35056;SDS011;21241;51.828;19.574;2023-05-19T02:42:37;16.80;;;15.50;;
35056;SDS011;21241;51.828;19.574;2023-05-19T02:45:05;16.70;;;15.50;;
35056;SDS011;21241;51.828;19.574;2023-05-19T02:47:33;16.60;;;15.40;;
35056;SDS011;21241;51.828;19.574;2023-05-19T02:50:04;18.10;;;16.40;;
35056;SDS011;21241;51.828;19.574;2023-05-19T02:52:32;17.30;;;16.00;;
35056;SDS011;21241;51.828;19.574;2023-05-19T02:55:00;18.90;;;17.50;;
35056;SDS011;21241;51.828;19.574;2023-05-19T02:57:28;18.60;;;17.30;;
35056;SDS011;21241;51.828;19.574;2023-05-19T02:59:58;22.30;;;20.70;;
35056;SDS011;21241;51.828;19.574;2023-05-19T03:02:25;22.60;;;21.00;;
35056;SDS011;21241;51.828;19.574;2023-05-19T03:04:53;20.10;;;18.70;;
35056;SDS011;21241;51.828;19.574;2023-05-19T03:07:21;21.10;;;19.60;;
35056;SDS011;21241;51.828;19.574;2023-05-19T03:09:51;19.70;;;18.30;;
35056;SDS011;21241;51.828;19.574;2023-05-19T03:12:19;20.90;;;19.40;;
35056;SDS011;21241;51.828;19.574;2023-05-19T03:14:48;20.90;;;19.40;;
35056;SDS011;21241;51.828;19.574;2023-05-19T03:17:16;20.40;;;18.90;;
35056;SDS011;21241;51.828;19.574;2023-05-19T03:19:43;19.70;;;18.10;;
35056;SDS011;21241;51.828;19.574;2023-05-19T03:22:11;17.70;;;16.50;;
35056;SDS011;21241;51.828;19.574;2023-05-19T03:24:39;19.80;;;18.20;;
35056;SDS011;21241;51.828;19.574;2023-05-19T03:27:07;18.20;;;16.80;;
35056;SDS011;21241;51.828;19.574;2023-05-19T03:29:34;17.70;;;16.40;;
35056;SDS011;21241;51.828;19.574;2023-05-19T03:32:03;18.00;;;16.70;;
35056;SDS011;21241;51.828;19.574;2023-05-19T03:34:31;17.70;;;16.30;;
35056;SDS011;21241;51.828;19.574;2023-05-19T03:37:00;18.10;;;16.60;;
35056;SDS011;21241;51.828;19.574;2023-05-19T03:39:28;17.00;;;15.70;;
35056;SDS011;21241;51.828;19.574;2023-05-19T03:41:56;17.70;;;16.30;;
35056;SDS011;21241;51.828;19.574;2023-05-19T03:44:23;17.00;;;15.70;;
35056;SDS011;21241;51.828;19.574;2023-05-19T03:46:52;17.20;;;15.90;;
35056;SDS011;21241;51.828;19.574;2023-05-19T03:49:28;16.90;;;15.70;;
35056;SDS011;21241;51.828;19.574;2023-05-19T03:52:34;17.10;;;15.80;;
35056;SDS011;21241;51.828;19.574;2023-05-19T03:55:22;16.40;;;15.20;;
35056;SDS011;21241;51.828;19.574;2023-05-19T03:57:50;16.40;;;15.20;;
35056;SDS011;21241;51.828;19.574;2023-05-19T04:00:19;15.60;;;14.40;;
35056;SDS011;21241;51.828;19.574;2023-05-19T04:02:47;16.90;;;15.60;;
35056;SDS011;21241;51.828;19.574;2023-05-19T04:05:15;16.20;;;15.00;;
35056;SDS011;21241;51.828;19.574;2023-05-19T04:07:43;15.40;;;14.20;;
35056;SDS011;21241;51.828;19.574;2023-05-19T04:10:13;16.30;;;15.10;;
35056;SDS011;21241;51.828;19.574;2023-05-19T04:12:40;15.50;;;14.20;;
35056;SDS011;21241;51.828;19.574;2023-05-19T04:15:08;14.80;;;13.70;;
35056;SDS011;21241;51.828;19.574;2023-05-19T04:17:38;14.10;;;13.00;;
35056;SDS011;21241;51.828;19.574;2023-05-19T04:20:06;14.20;;;13.10;;
35056;SDS011;21241;51.828;19.574;2023-05-19T04:22:34;13.70;;;12.70;;
35056;SDS011;21241;51.828;19.574;2023-05-19T04:25:01;13.60;;;12.60;;
35056;SDS011;21241;51.828;19.574;2023-05-19T04:27:31;14.10;;;13.00;;
35056;SDS011;21241;51.828;19.574;2023-05-19T04:30:03;14.40;;;13.20;;
35056;SDS011;21241;51.828;19.574;2023-05-19T04:32:32;13.50;;;12.50;;
35056;SDS011;21241;51.828;19.574;2023-05-19T04:35:00;13.20;;;12.20;;
35056;SDS011;21241;51.828;19.574;2023-05-19T04:37:29;12.10;;;11.10;;
35056;SDS011;21241;51.828;19.574;2023-05-19T04:39:57;12.30;;;11.40;;
35056;SDS011;21241;51.828;19.574;2023-05-19T04:42:25;12.20;;;11.30;;
35056;SDS011;21241;51.828;19.574;2023-05-19T04:44:58;12.50;;;11.50;;
35056;SDS011;21241;51.828;19.574;2023-05-19T04:47:27;12.40;;;11.40;;
35056;SDS011;21241;51.828;19.574;2023-05-19T04:49:57;11.30;;;10.40;;
35056;SDS011;21241;51.828;19.574;2023-05-19T04:52:27;11.10;;;10.20;;
35056;SDS011;21241;51.828;19.574;2023-05-19T04:54:55;10.00;;;9.20;;
35056;SDS011;21241;51.828;19.574;2023-05-19T04:57:24;10.70;;;9.80;;
35056;SDS011;21241;51.828;19.574;2023-05-19T04:59:52;9.70;;;8.90;;
35056;SDS011;21241;51.828;19.574;2023-05-19T05:02:27;9.50;;;8.90;;
35056;SDS011;21241;51.828;19.574;2023-05-19T05:04:55;9.10;;;8.40;;
35056;SDS011;21241;51.828;19.574;2023-05-19T05:07:24;8.80;;;8.10;;
35056;SDS011;21241;51.828;19.574;2023-05-19T05:09:52;9.40;;;8.70;;
35056;SDS011;21241;51.828;19.574;2023-05-19T05:12:20;10.00;;;9.20;;
35056;SDS011;21241;51.828;19.574;2023-05-19T05:14:48;8.80;;;8.20;;
35056;SDS011;21241;51.828;19.574;2023-05-19T05:17:17;8.60;;;8.00;;
35056;SDS011;21241;51.828;19.574;2023-05-19T05:19:45;8.30;;;7.60;;
35056;SDS011;21241;51.828;19.574;2023-05-19T05:22:13;8.80;;;8.10;;
35056;SDS011;21241;51.828;19.574;2023-05-19T05:24:41;8.70;;;8.00;;
35056;SDS011;21241;51.828;19.574;2023-05-19T05:27:10;8.60;;;7.90;;
35056;SDS011;21241;51.828;19.574;2023-05-19T05:29:37;8.80;;;8.00;;
35056;SDS011;21241;51.828;19.574;2023-05-19T05:32:06;8.40;;;7.70;;
35056;SDS011;21241;51.828;19.574;2023-05-19T05:34:35;8.30;;;7.70;;
35056;SDS011;21241;51.828;19.574;2023-05-19T05:37:05;9.30;;;8.70;;
35056;SDS011;21241;51.828;19.574;2023-05-19T05:39:34;9.20;;;8.40;;
35056;SDS011;21241;51.828;19.574;2023-05-19T05:42:02;8.50;;;7.90;;
35056;SDS011;21241;51.828;19.574;2023-05-19T05:44:30;8.30;;;7.60;;
35056;SDS011;21241;51.828;19.574;2023-05-19T05:46:58;10.10;;;9.30;;
35056;SDS011;21241;51.828;19.574;2023-05-19T05:49:26;8.70;;;8.10;;
35056;SDS011;21241;51.828;19.574;2023-05-19T05:51:55;8.30;;;7.70;;
35056;SDS011;21241;51.828;19.574;2023-05-19T05:54:38;8.80;;;8.10;;
35056;SDS011;21241;51.828;19.574;2023-05-19T05:57:06;7.90;;;7.30;;
35056;SDS011;21241;51.828;19.574;2023-05-19T05:59:34;8.60;;;8.00;;
35056;SDS011;21241;51.828;19.574;2023-05-19T06:02:02;8.40;;;7.70;;
35056;SDS011;21241;51.828;19.574;2023-05-19T06:04:31;7.20;;;6.60;;
35056;SDS011;21241;51.828;19.574;2023-05-19T06:06:58;7.50;;;6.90;;
35056;SDS011;21241;51.828;19.574;2023-05-19T06:09:31;7.30;;;6.70;;
35056;SDS011;21241;51.828;19.574;2023-05-19T06:11:59;7.20;;;6.70;;
35056;SDS011;21241;51.828;19.574;2023-05-19T06:14:28;7.40;;;6.80;;
35056;SDS011;21241;51.828;19.574;2023-05-19T06:17:13;7.80;;;7.10;;
35056;SDS011;21241;51.828;19.574;2023-05-19T06:19:41;8.20;;;7.50;;
35056;SDS011;21241;51.828;19.574;2023-05-19T06:22:09;7.60;;;7.00;;
35056;SDS011;21241;51.828;19.574;2023-05-19T06:24:37;6.80;;;6.30;;
35056;SDS011;21241;51.828;19.574;2023-05-19T06:27:08;8.00;;;7.40;;
35056;SDS011;21241;51.828;19.574;2023-05-19T06:29:35;8.00;;;7.30;;
35056;SDS011;21241;51.828;19.574;2023-05-19T06:32:05;8.50;;;7.70;;
35056;SDS011;21241;51.828;19.574;2023-05-19T06:34:33;8.80;;;8.10;;
35056;SDS011;21241;51.828;19.574;2023-05-19T06:37:00;9.00;;;8.30;;
35056;SDS011;21241;51.828;19.574;2023-05-19T06:39:31;9.30;;;8.60;;
35056;SDS011;21241;51.828;19.574;2023-05-19T06:41:59;8.60;;;8.00;;
35056;SDS011;21241;51.828;19.574;2023-05-19T06:44:47;8.80;;;8.20;;
35056;SDS011;21241;51.828;19.574;2023-05-19T06:47:16;9.30;;;8.60;;
35056;SDS011;21241;51.828;19.574;2023-05-19T06:49:44;8.60;;;8.00;;
35056;SDS011;21241;51.828;19.574;2023-05-19T06:52:13;7.90;;;7.20;;
35056;SDS011;21241;51.828;19.574;2023-05-19T06:54:40;7.40;;;6.80;;
35056;SDS011;21241;51.828;19.574;2023-05-19T06:57:09;7.70;;;7.10;;
35056;SDS011;21241;51.828;19.574;2023-05-19T06:59:37;7.40;;;6.90;;
35056;SDS011;21241;51.828;19.574;2023-05-19T07:02:08;7.00;;;6.50;;
35056;SDS011;21241;51.828;19.574;2023-05-19T07:04:37;6.70;;;6.20;;
35056;SDS011;21241;51.828;19.574;2023-05-19T07:07:06;6.80;;;6.20;;
35056;SDS011;21241;51.828;19.574;2023-05-19T07:09:34;6.40;;;5.90;;
35056;SDS011;21241;51.828;19.574;2023-05-19T07:12:02;6.30;;;5.80;;
35056;SDS011;21241;51.828;19.574;2023-05-19T07:14:30;5.50;;;5.10;;
35056;SDS011;21241;51.828;19.574;2023-05-19T07:16:58;5.50;;;5.20;;
35056;SDS011;21241;51.828;19.574;2023-05-19T07:19:25;6.00;;;5.50;;
35056;SDS011;21241;51.828;19.574;2023-05-19T07:21:53;6.20;;;5.70;;
35056;SDS011;21241;51.828;19.574;2023-05-19T07:24:24;6.40;;;5.80;;
35056;SDS011;21241;51.828;19.574;2023-05-19T07:26:53;5.70;;;5.30;;
35056;SDS011;21241;51.828;19.574;2023-05-19T07:29:21;5.50;;;5.10;;
35056;SDS011;21241;51.828;19.574;2023-05-19T07:31:49;5.70;;;5.30;;
35056;SDS011;21241;51.828;19.574;2023-05-19T07:34:20;4.40;;;4.10;;
35056;SDS011;21241;51.828;19.574;2023-05-19T07:36:48;4.80;;;4.40;;
35056;SDS011;21241;51.828;19.574;2023-05-19T07:39:16;5.10;;;4.60;;
35056;SDS011;21241;51.828;19.574;2023-05-19T07:41:44;4.40;;;4.00;;
35056;SDS011;21241;51.828;19.574;2023-05-19T07:44:19;4.90;;;4.20;;
35056;SDS011;21241;51.828;19.574;2023-05-19T07:46:46;4.10;;;3.80;;
35056;SDS011;21241;51.828;19.574;2023-05-19T07:49:14;4.40;;;4.10;;
35056;SDS011;21241;51.828;19.574;2023-05-19T07:51:42;4.90;;;4.60;;
35056;SDS011;21241;51.828;19.574;2023-05-19T07:54:09;4.60;;;4.20;;
35056;SDS011;21241;51.828;19.574;2023-05-19T07:56:37;4.60;;;4.20;;
35056;SDS011;21241;51.828;19.574;2023-05-19T07:59:05;4.60;;;4.20;;
35056;SDS011;21241;51.828;19.574;2023-05-19T08:01:34;4.70;;;4.20;;
35056;SDS011;21241;51.828;19.574;2023-05-19T08:04:02;4.80;;;4.40;;
35056;SDS011;21241;51.828;19.574;2023-05-19T08:06:29;4.30;;;3.90;;
35056;SDS011;21241;51.828;19.574;2023-05-19T08:08:58;5.70;;;4.70;;
35056;SDS011;21241;51.828;19.574;2023-05-19T08:11:26;4.80;;;4.40;;
35056;SDS011;21241;51.828;19.574;2023-05-19T08:13:53;4.90;;;4.50;;
35056;SDS011;21241;51.828;19.574;2023-05-19T08:16:21;5.30;;;4.80;;
35056;SDS011;21241;51.828;19.574;2023-05-19T08:18:49;5.30;;;4.80;;
35056;SDS011;21241;51.828;19.574;2023-05-19T08:21:17;5.30;;;4.80;;
35056;SDS011;21241;51.828;19.574;2023-05-19T08:23:44;4.70;;;4.20;;
35056;SDS011;21241;51.828;19.574;2023-05-19T08:26:12;5.50;;;4.90;;
35056;SDS011;21241;51.828;19.574;2023-05-19T08:28:40;4.60;;;4.20;;
35056;SDS011;21241;51.828;19.574;2023-05-19T08:31:08;5.00;;;4.60;;
35056;SDS011;21241;51.828;19.574;2023-05-19T08:33:35;6.50;;;4.90;;
35056;SDS011;21241;51.828;19.574;2023-05-19T08:36:03;5.60;;;5.00;;
35056;SDS011;21241;51.828;19.574;2023-05-19T08:38:31;5.60;;;5.20;;
35056;SDS011;21241;51.828;19.574;2023-05-19T08:40:59;6.80;;;6.20;;
35056;SDS011;21241;51.828;19.574;2023-05-19T08:43:26;6.20;;;5.60;;
35056;SDS011;21241;51.828;19.574;2023-05-19T08:45:54;5.50;;;5.00;;
35056;SDS011;21241;51.828;19.574;2023-05-19T08:48:22;5.40;;;4.90;;
35056;SDS011;21241;51.828;19.574;2023-05-19T08:51:26;5.30;;;4.90;;
35056;SDS011;21241;51.828;19.574;2023-05-19T08:53:49;5.80;;;5.30;;
35056;SDS011;21241;51.828;19.574;2023-05-19T08:56:21;5.50;;;5.10;;
35056;SDS011;21241;51.828;19.574;2023-05-19T08:58:51;5.40;;;5.00;;
35056;SDS011;21241;51.828;19.574;2023-05-19T09:01:19;6.10;;;5.50;;
35056;SDS011;21241;51.828;19.574;2023-05-19T09:03:48;7.50;;;5.80;;
35056;SDS011;21241;51.828;19.574;2023-05-19T09:06:16;5.50;;;5.00;;
35056;SDS011;21241;51.828;19.574;2023-05-19T09:08:44;5.10;;;4.60;;
35056;SDS011;21241;51.828;19.574;2023-05-19T09:11:13;5.70;;;5.20;;
35056;SDS011;21241;51.828;19.574;2023-05-19T09:13:41;5.60;;;5.10;;
35056;SDS011;21241;51.828;19.574;2023-05-19T09:16:09;6.10;;;5.60;;
35056;SDS011;21241;51.828;19.574;2023-05-19T09:18:37;5.80;;;5.30;;
35056;SDS011;21241;51.828;19.574;2023-05-19T09:21:05;6.10;;;5.50;;
35056;SDS011;21241;51.828;19.574;2023-05-19T09:23:34;6.20;;;5.70;;
35056;SDS011;21241;51.828;19.574;2023-05-19T09:26:02;5.80;;;5.40;;
35056;SDS011;21241;51.828;19.574;2023-05-19T09:28:32;6.10;;;5.50;;
35056;SDS011;21241;51.828;19.574;2023-05-19T09:33:28;6.30;;;5.80;;
35056;SDS011;21241;51.828;19.574;2023-05-19T09:35:57;6.00;;;5.60;;
35056;SDS011;21241;51.828;19.574;2023-05-19T09:38:25;6.40;;;5.90;;
35056;SDS011;21241;51.828;19.574;2023-05-19T09:40:57;6.80;;;6.10;;
35056;SDS011;21241;51.828;19.574;2023-05-19T09:43:29;7.10;;;6.50;;
35056;SDS011;21241;51.828;19.574;2023-05-19T09:46:02;6.70;;;6.20;;
35056;SDS011;21241;51.828;19.574;2023-05-19T09:48:34;7.50;;;6.90;;
35056;SDS011;21241;51.828;19.574;2023-05-19T09:51:03;8.20;;;7.50;;
35056;SDS011;21241;51.828;19.574;2023-05-19T09:53:34;8.70;;;8.00;;
35056;SDS011;21241;51.828;19.574;2023-05-19T09:56:01;7.70;;;7.20;;
35056;SDS011;21241;51.828;19.574;2023-05-19T09:58:30;8.80;;;8.10;;
35056;SDS011;21241;51.828;19.574;2023-05-19T10:01:02;8.10;;;7.50;;
35056;SDS011;21241;51.828;19.574;2023-05-19T10:03:30;8.00;;;7.40;;
35056;SDS011;21241;51.828;19.574;2023-05-19T10:06:02;8.40;;;7.80;;
35056;SDS011;21241;51.828;19.574;2023-05-19T10:08:31;8.40;;;7.80;;
35056;SDS011;21241;51.828;19.574;2023-05-19T10:11:00;9.30;;;8.70;;
35056;SDS011;21241;51.828;19.574;2023-05-19T10:13:28;8.70;;;8.10;;
35056;SDS011;21241;51.828;19.574;2023-05-19T10:15:56;9.90;;;9.10;;
35056;SDS011;21241;51.828;19.574;2023-05-19T10:18:26;8.80;;;8.10;;
35056;SDS011;21241;51.828;19.574;2023-05-19T10:20:56;9.20;;;8.40;;
35056;SDS011;21241;51.828;19.574;2023-05-19T10:23:25;9.90;;;9.10;;
35056;SDS011;21241;51.828;19.574;2023-05-19T10:25:54;9.80;;;9.10;;
35056;SDS011;21241;51.828;19.574;2023-05-19T10:28:24;10.30;;;9.50;;
35056;SDS011;21241;51.828;19.574;2023-05-19T10:30:55;10.40;;;9.60;;
35056;SDS011;21241;51.828;19.574;2023-05-19T10:33:28;10.60;;;9.90;;
35056;SDS011;21241;51.828;19.574;2023-05-19T10:37:05;11.00;;;10.30;;
35056;SDS011;21241;51.828;19.574;2023-05-19T10:39:20;11.10;;;10.40;;
35056;SDS011;21241;51.828;19.574;2023-05-19T10:41:59;11.60;;;10.70;;
35056;SDS011;21241;51.828;19.574;2023-05-19T10:47:49;12.60;;;11.70;;
35056;SDS011;21241;51.828;19.574;2023-05-19T10:50:18;11.80;;;11.00;;
35056;SDS011;21241;51.828;19.574;2023-05-19T10:52:55;11.60;;;10.70;;
35056;SDS011;21241;51.828;19.574;2023-05-19T10:58:37;11.40;;;10.60;;
35056;SDS011;21241;51.828;19.574;2023-05-19T11:01:06;11.80;;;11.00;;
35056;SDS011;21241;51.828;19.574;2023-05-19T11:03:44;11.50;;;10.80;;
35056;SDS011;21241;51.828;19.574;2023-05-19T11:08:51;12.70;;;11.80;;
35056;SDS011;21241;51.828;19.574;2023-05-19T11:11:52;11.70;;;10.90;;
35056;SDS011;21241;51.828;19.574;2023-05-19T11:14:21;12.10;;;11.20;;
35056;SDS011;21241;51.828;19.574;2023-05-19T11:16:50;11.50;;;10.70;;
35056;SDS011;21241;51.828;19.574;2023-05-19T11:21:55;12.40;;;11.50;;
35056;SDS011;21241;51.828;19.574;2023-05-19T11:24:36;13.00;;;12.00;;
35056;SDS011;21241;51.828;19.574;2023-05-19T11:27:31;12.00;;;11.20;;
35056;SDS011;21241;51.828;19.574;2023-05-19T11:32:36;11.70;;;10.80;;
35056;SDS011;21241;51.828;19.574;2023-05-19T11:35:08;11.50;;;10.70;;
35056;SDS011;21241;51.828;19.574;2023-05-19T11:37:37;11.90;;;11.00;;
35056;SDS011;21241;51.828;19.574;2023-05-19T11:40:07;12.40;;;11.40;;
35056;SDS011;21241;51.828;19.574;2023-05-19T11:42:35;14.10;;;13.00;;
35056;SDS011;21241;51.828;19.574;2023-05-19T11:45:03;14.90;;;13.70;;
35056;SDS011;21241;51.828;19.574;2023-05-19T11:47:32;16.20;;;15.00;;
35056;SDS011;21241;51.828;19.574;2023-05-19T11:50:18;16.60;;;15.30;;
35056;SDS011;21241;51.828;19.574;2023-05-19T11:52:47;15.70;;;14.30;;
35056;SDS011;21241;51.828;19.574;2023-05-19T11:55:15;15.00;;;13.80;;
35056;SDS011;21241;51.828;19.574;2023-05-19T11:58:17;14.50;;;13.40;;
35056;SDS011;21241;51.828;19.574;2023-05-19T12:00:38;15.70;;;14.60;;
35056;SDS011;21241;51.828;19.574;2023-05-19T12:03:07;14.90;;;13.90;;
35056;SDS011;21241;51.828;19.574;2023-05-19T12:05:37;15.00;;;14.00;;
35056;SDS011;21241;51.828;19.574;2023-05-19T12:08:10;17.20;;;15.90;;
35056;SDS011;21241;51.828;19.574;2023-05-19T12:10:39;15.60;;;14.40;;
35056;SDS011;21241;51.828;19.574;2023-05-19T12:13:07;15.30;;;14.10;;
35056;SDS011;21241;51.828;19.574;2023-05-19T12:15:38;16.80;;;15.60;;
35056;SDS011;21241;51.828;19.574;2023-05-19T12:18:06;15.90;;;14.70;;
35056;SDS011;21241;51.828;19.574;2023-05-19T12:20:34;17.00;;;15.70;;
35056;SDS011;21241;51.828;19.574;2023-05-19T12:23:02;16.30;;;15.00;;
35056;SDS011;21241;51.828;19.574;2023-05-19T12:25:31;16.20;;;14.90;;
35056;SDS011;21241;51.828;19.574;2023-05-19T12:27:59;15.20;;;14.10;;
35056;SDS011;21241;51.828;19.574;2023-05-19T12:30:31;16.90;;;15.60;;
35056;SDS011;21241;51.828;19.574;2023-05-19T12:33:01;18.60;;;17.10;;
35056;SDS011;21241;51.828;19.574;2023-05-19T12:35:30;18.00;;;16.50;;
35056;SDS011;21241;51.828;19.574;2023-05-19T12:38:02;17.70;;;16.40;;
35056;SDS011;21241;51.828;19.574;2023-05-19T12:40:33;18.40;;;17.00;;
35056;SDS011;21241;51.828;19.574;2023-05-19T12:43:03;17.90;;;16.60;;
35056;SDS011;21241;51.828;19.574;2023-05-19T12:45:34;16.80;;;15.50;;
35056;SDS011;21241;51.828;19.574;2023-05-19T12:48:12;17.20;;;15.90;;
35056;SDS011;21241;51.828;19.574;2023-05-19T12:50:44;16.20;;;15.00;;
35056;SDS011;21241;51.828;19.574;2023-05-19T12:53:12;16.20;;;15.00;;
35056;SDS011;21241;51.828;19.574;2023-05-19T12:55:42;17.40;;;16.00;;
35056;SDS011;21241;51.828;19.574;2023-05-19T12:58:10;15.90;;;14.70;;
35056;SDS011;21241;51.828;19.574;2023-05-19T13:00:42;18.20;;;16.60;;
35056;SDS011;21241;51.828;19.574;2023-05-19T13:03:18;18.20;;;16.70;;
35056;SDS011;21241;51.828;19.574;2023-05-19T13:05:48;17.30;;;16.00;;
35056;SDS011;21241;51.828;19.574;2023-05-19T13:08:20;18.30;;;16.70;;
35056;SDS011;21241;51.828;19.574;2023-05-19T13:10:50;18.10;;;16.70;;
35056;SDS011;21241;51.828;19.574;2023-05-19T13:13:18;19.00;;;17.50;;
35056;SDS011;21241;51.828;19.574;2023-05-19T13:15:46;18.10;;;16.80;;
35056;SDS011;21241;51.828;19.574;2023-05-19T13:18:15;19.50;;;17.90;;
35056;SDS011;21241;51.828;19.574;2023-05-19T13:20:44;19.80;;;18.30;;
35056;SDS011;21241;51.828;19.574;2023-05-19T13:23:13;19.70;;;18.20;;
35056;SDS011;21241;51.828;19.574;2023-05-19T13:25:41;19.70;;;18.20;;
35056;SDS011;21241;51.828;19.574;2023-05-19T13:28:09;20.90;;;19.10;;
35056;SDS011;21241;51.828;19.574;2023-05-19T13:30:38;19.80;;;18.20;;
35056;SDS011;21241;51.828;19.574;2023-05-19T13:33:06;19.90;;;18.30;;
35056;SDS011;21241;51.828;19.574;2023-05-19T13:35:34;19.70;;;18.00;;
35056;SDS011;21241;51.828;19.574;2023-05-19T13:38:05;19.00;;;17.50;;
35056;SDS011;21241;51.828;19.574;2023-05-19T13:40:34;19.00;;;17.40;;
35056;SDS011;21241;51.828;19.574;2023-05-19T13:43:03;18.20;;;16.90;;
35056;SDS011;21241;51.828;19.574;2023-05-19T13:45:31;18.30;;;16.90;;
35056;SDS011;21241;51.828;19.574;2023-05-19T13:47:59;20.20;;;18.60;;
35056;SDS011;21241;51.828;19.574;2023-05-19T13:50:27;20.40;;;18.80;;
35056;SDS011;21241;51.828;19.574;2023-05-19T13:52:55;21.30;;;19.60;;
35056;SDS011;21241;51.828;19.574;2023-05-19T13:55:23;21.40;;;19.60;;
35056;SDS011;21241;51.828;19.574;2023-05-19T13:57:53;19.00;;;17.40;;
35056;SDS011;21241;51.828;19.574;2023-05-19T14:00:21;18.90;;;17.40;;
35056;SDS011;21241;51.828;19.574;2023-05-19T14:02:49;18.20;;;16.80;;
35056;SDS011;21241;51.828;19.574;2023-05-19T14:05:17;19.10;;;17.60;;
35056;SDS011;21241;51.828;19.574;2023-05-19T14:07:44;19.40;;;17.70;;
35056;SDS011;21241;51.828;19.574;2023-05-19T14:10:13;18.90;;;17.40;;
35056;SDS011;21241;51.828;19.574;2023-05-19T14:12:40;18.30;;;16.90;;
35056;SDS011;21241;51.828;19.574;2023-05-19T14:15:28;19.20;;;17.60;;
35056;SDS011;21241;51.828;19.574;2023-05-19T14:17:56;20.30;;;18.60;;
35056;SDS011;21241;51.828;19.574;2023-05-19T14:20:25;19.90;;;18.20;;
35056;SDS011;21241;51.828;19.574;2023-05-19T14:22:55;20.10;;;18.60;;
35056;SDS011;21241;51.828;19.574;2023-05-19T14:25:23;19.10;;;17.50;;
35056;SDS011;21241;51.828;19.574;2023-05-19T14:27:51;19.90;;;18.30;;
35056;SDS011;21241;51.828;19.574;2023-05-19T14:30:18;19.80;;;18.20;;
35056;SDS011;21241;51.828;19.574;2023-05-19T14:32:46;20.30;;;18.60;;
35056;SDS011;21241;51.828;19.574;2023-05-19T14:35:14;18.10;;;16.50;;
35056;SDS011;21241;51.828;19.574;2023-05-19T14:37:42;17.50;;;15.90;;
35056;SDS011;21241;51.828;19.574;2023-05-19T14:40:10;17.10;;;15.60;;
35056;SDS011;21241;51.828;19.574;2023-05-19T14:42:38;22.80;;;20.80;;
35056;SDS011;21241;51.828;19.574;2023-05-19T14:45:06;18.80;;;17.20;;
35056;SDS011;21241;51.828;19.574;2023-05-19T14:47:34;21.50;;;19.80;;
35056;SDS011;21241;51.828;19.574;2023-05-19T14:50:02;18.10;;;16.70;;
35056;SDS011;21241;51.828;19.574;2023-05-19T14:52:29;17.90;;;16.50;;
35056;SDS011;21241;51.828;19.574;2023-05-19T14:54:57;18.10;;;16.50;;
35056;SDS011;21241;51.828;19.574;2023-05-19T14:57:25;18.80;;;17.30;;